Time;durP1;ratioP1;P1;durP2;ratioP2;P2;SDS_P1;SDS_P2;PMS_P1;PMS_P2;Temp;Humidity;BMP_temperature;BMP_pressure;BME280_temperature;BME280_humidity;BME280_pressure;Samples;Min_cycle;Max_cycle;Signal;HPM_P1;HPM_P2
2023/07/18 00:00:30;;;;;;;15.00;9.25;;;;;;;24.01;62.97;94174.22;5062958;28;20059;-77
2023/07/18 00:02:55;;;;;;;13.05;8.65;;;;;;;24.01;63.12;94176.16;5062885;28;20049;-77
2023/07/18 00:05:22;;;;;;;16.05;9.07;;;;;;;23.96;63.22;94179.28;5061717;28;20029;-77
2023/07/18 00:07:48;;;;;;;12.07;9.43;;;;;;;23.84;63.88;94161.41;5063061;28;20056;-77
2023/07/18 00:10:18;;;;;;;14.25;9.70;;;;;;;23.83;63.57;94165.28;5062679;28;20044;-77
2023/07/18 00:12:43;;;;;;;16.40;9.57;;;;;;;23.78;63.53;94169.19;5062711;28;20017;-77
2023/07/18 00:15:09;;;;;;;15.88;9.30;;;;;;;23.74;64.02;94184.72;5061687;28;20042;-77
2023/07/18 00:17:36;;;;;;;16.98;9.63;;;;;;;23.75;63.68;94180.03;5062964;28;20363;-77
2023/07/18 00:20:18;;;;;;;14.35;9.32;;;;;;;23.74;64.00;94162.16;5062761;28;20319;-77
2023/07/18 00:22:48;;;;;;;18.77;9.02;;;;;;;23.70;63.94;94164.88;5062619;28;20374;-78
2023/07/18 00:25:16;;;;;;;14.77;9.10;;;;;;;23.72;63.87;94161.78;5062771;28;20096;-78
2023/07/18 00:27:43;;;;;;;12.52;8.77;;;;;;;23.65;63.97;94162.56;5062732;28;20017;-78
2023/07/18 00:30:12;;;;;;;17.25;9.18;;;;;;;23.66;64.41;94166.81;5062721;28;20021;-77
2023/07/18 00:32:38;;;;;;;17.85;10.25;;;;;;;23.67;64.47;94168.41;5062574;28;20021;-78
2023/07/18 00:35:04;;;;;;;14.68;9.52;;;;;;;23.64;64.38;94175.38;5062618;28;20140;-78
2023/07/18 00:37:31;;;;;;;19.77;10.43;;;;;;;23.53;64.80;94162.94;5062533;28;20028;-77
2023/07/18 00:39:56;;;;;;;14.65;9.98;;;;;;;23.48;65.04;94155.16;5062539;28;20071;-78
2023/07/18 00:42:22;;;;;;;13.52;10.40;;;;;;;23.53;65.17;94158.28;5062461;28;20028;-78
2023/07/18 00:44:51;;;;;;;19.92;10.75;;;;;;;23.53;64.68;94162.94;5062678;28;20027;-78
2023/07/18 00:47:22;;;;;;;13.82;9.07;;;;;;;23.45;64.95;94159.44;5062782;28;20040;-78
2023/07/18 00:49:48;;;;;;;16.45;10.15;;;;;;;23.38;64.96;94148.56;5062594;28;20028;-78
2023/07/18 00:52:14;;;;;;;16.95;10.77;;;;;;;23.34;65.19;94134.94;5062205;28;20028;-78
2023/07/18 00:54:41;;;;;;;14.55;10.13;;;;;;;23.37;65.27;94134.19;5062243;28;20051;-78
2023/07/18 00:57:10;;;;;;;13.00;10.23;;;;;;;23.41;65.57;94129.53;5062204;28;20017;-78
2023/07/18 00:59:37;;;;;;;15.07;10.23;;;;;;;23.44;65.10;94134.16;5062333;28;20029;-78
2023/07/18 01:02:03;;;;;;;14.93;10.32;;;;;;;23.47;64.81;94126.41;5061991;28;20367;-78
2023/07/18 01:04:28;;;;;;;14.00;10.00;;;;;;;23.51;64.91;94129.91;5061145;28;20029;-78
2023/07/18 01:06:54;;;;;;;13.38;10.00;;;;;;;23.49;64.54;94134.94;5062282;28;20319;-78
2023/07/18 01:09:20;;;;;;;14.35;10.13;;;;;;;23.40;64.74;94127.94;5062372;28;20219;-78
2023/07/18 01:11:45;;;;;;;14.32;9.85;;;;;;;23.41;65.07;94120.59;5062288;28;20013;-77
2023/07/18 01:14:11;;;;;;;16.42;9.82;;;;;;;23.43;65.14;94121.75;5062110;28;20021;-78
2023/07/18 01:16:36;;;;;;;17.88;9.98;;;;;;;23.44;64.98;94126.00;5062079;28;20051;-78
2023/07/18 01:19:02;;;;;;;15.45;11.45;;;;;;;23.45;65.39;94126.81;5062208;28;20020;-77
2023/07/18 01:21:28;;;;;;;17.55;9.85;;;;;;;23.43;65.20;94137.31;5061967;28;20336;-78
2023/07/18 01:23:53;;;;;;;19.42;9.90;;;;;;;23.37;65.61;94126.03;5062112;28;20067;-77
2023/07/18 01:26:19;;;;;;;15.57;10.55;;;;;;;23.30;65.92;94127.97;5062146;28;20235;-77
2023/07/18 01:28:44;;;;;;;16.55;11.40;;;;;;;23.30;65.91;94139.59;5062436;28;20329;-77
2023/07/18 01:31:10;;;;;;;16.65;10.60;;;;;;;23.30;65.91;94144.28;5065748;28;20047;-78
2023/07/18 01:33:37;;;;;;;14.60;11.55;;;;;;;23.18;65.53;94143.50;5065770;28;20021;-77
2023/07/18 01:36:03;;;;;;;13.95;10.93;;;;;;;23.13;65.34;94137.66;5065556;28;20099;-78
2023/07/18 01:38:31;;;;;;;13.27;10.57;;;;;;;23.02;65.80;94146.56;5064451;28;20016;-78
2023/07/18 01:40:57;;;;;;;15.88;10.48;;;;;;;22.94;66.05;94147.69;5065217;28;20032;-77
2023/07/18 01:43:23;;;;;;;13.82;10.43;;;;;;;22.92;66.13;94144.59;5065541;28;20052;-78
2023/07/18 01:45:48;;;;;;;13.90;10.25;;;;;;;22.89;66.18;94147.28;5065654;28;20028;-78
2023/07/18 01:48:14;;;;;;;17.58;10.90;;;;;;;22.76;66.94;94150.34;5065470;28;20092;-77
2023/07/18 01:50:40;;;;;;;13.48;10.77;;;;;;;22.80;66.79;94155.81;5065126;28;20488;-78
2023/07/18 01:53:06;;;;;;;15.02;11.75;;;;;;;22.86;66.56;94146.13;5065194;28;20345;-77
2023/07/18 01:55:32;;;;;;;14.65;10.65;;;;;;;22.80;67.03;94148.44;5065367;28;20025;-77
2023/07/18 01:57:57;;;;;;;19.70;10.95;;;;;;;22.87;66.77;94136.78;5064047;28;20028;-77
2023/07/18 02:00:24;;;;;;;14.98;10.68;;;;;;;22.85;66.35;94139.13;5065134;28;20033;-77
2023/07/18 02:02:51;;;;;;;15.38;11.25;;;;;;;22.82;66.74;94139.91;5065163;28;20047;-77
2023/07/18 02:05:23;;;;;;;14.18;11.20;;;;;;;22.87;66.46;94136.03;5065161;28;20024;-77
2023/07/18 02:07:48;;;;;;;19.17;11.60;;;;;;;22.81;66.64;94141.81;5065330;28;20314;-77
2023/07/18 02:10:15;;;;;;;19.00;11.77;;;;;;;22.82;66.98;94145.34;5065083;28;20048;-77
2023/07/18 02:12:41;;;;;;;15.82;10.38;;;;;;;22.79;66.98;94135.22;5065042;28;20270;-76
2023/07/18 02:15:07;;;;;;;17.27;11.57;;;;;;;22.79;67.57;94141.41;5064811;28;20017;-78
2023/07/18 02:17:33;;;;;;;14.00;11.68;;;;;;;22.77;67.35;94145.69;5064857;28;20020;-77
2023/07/18 02:19:59;;;;;;;14.35;10.98;;;;;;;22.80;67.29;94142.22;5064854;28;20027;-77
2023/07/18 02:22:25;;;;;;;16.50;11.27;;;;;;;22.75;67.70;94154.22;5064762;28;20252;-77
2023/07/18 02:24:50;;;;;;;20.17;12.07;;;;;;;22.72;67.63;94138.69;5064679;28;20024;-78
2023/07/18 02:27:18;;;;;;;19.83;11.85;;;;;;;22.71;67.55;94136.34;5064896;28;20054;-78
2023/07/18 02:29:46;;;;;;;15.95;12.10;;;;;;;22.57;67.73;94146.03;5064834;28;20021;-78
2023/07/18 02:32:12;;;;;;;21.10;11.55;;;;;;;22.53;68.54;94147.16;5064571;28;20017;-78
2023/07/18 02:34:40;;;;;;;14.85;11.90;;;;;;;22.52;68.06;94146.38;5064549;28;20027;-78
2023/07/18 02:37:05;;;;;;;22.75;12.00;;;;;;;22.44;68.49;94150.22;5064639;28;20021;-78
2023/07/18 02:39:32;;;;;;;15.20;10.93;;;;;;;22.46;68.33;94150.63;5064397;28;20043;-77
2023/07/18 02:41:58;;;;;;;15.20;10.93;;;;;;;22.47;68.15;94159.53;5063031;28;20025;-78
2023/07/18 02:44:23;;;;;;;15.15;11.23;;;;;;;22.45;68.56;94165.38;5064310;28;20021;-78
2023/07/18 02:46:48;;;;;;;16.08;11.57;;;;;;;22.46;68.37;94161.50;5064330;28;20017;-78
2023/07/18 02:49:14;;;;;;;16.05;10.63;;;;;;;22.46;68.15;94163.44;5064406;28;20311;-77
2023/07/18 02:51:39;;;;;;;17.17;10.98;;;;;;;22.40;68.37;94160.31;5063102;28;20025;-77
2023/07/18 02:54:05;;;;;;;15.25;10.90;;;;;;;22.31;68.30;94154.44;5064085;28;20044;-78
2023/07/18 02:56:32;;;;;;;16.77;11.50;;;;;;;22.26;68.37;94149.38;5062841;28;20077;-78
2023/07/18 02:58:57;;;;;;;18.95;11.93;;;;;;;22.21;68.76;94151.25;5064170;28;20032;-78
2023/07/18 03:01:23;;;;;;;16.23;10.93;;;;;;;22.15;68.75;94149.28;5063877;28;20024;-77
2023/07/18 03:03:48;;;;;;;13.52;11.63;;;;;;;22.09;69.42;94156.25;5064104;28;20025;-78
2023/07/18 03:06:16;;;;;;;20.05;11.45;;;;;;;22.07;69.79;94153.91;5062737;28;20032;-78
2023/07/18 03:08:42;;;;;;;21.08;11.82;;;;;;;22.09;70.13;94158.97;5063891;28;20021;-77
2023/07/18 03:11:07;;;;;;;16.95;11.25;;;;;;;22.07;70.30;94150.41;5063876;28;20047;-77
2023/07/18 03:13:33;;;;;;;19.23;12.18;;;;;;;22.06;70.75;94157.75;5063833;28;20071;-76
2023/07/18 03:15:59;;;;;;;29.98;11.45;;;;;;;22.04;70.47;94158.16;5063717;28;20100;-77
2023/07/18 03:18:25;;;;;;;18.08;11.40;;;;;;;22.02;70.09;94165.09;5063635;28;20031;-77
2023/07/18 03:20:50;;;;;;;15.43;11.20;;;;;;;22.07;69.82;94159.31;5062230;28;20029;-77
2023/07/18 03:23:16;;;;;;;17.67;11.95;;;;;;;22.11;69.80;94159.34;5063715;28;20031;-77
2023/07/18 03:25:41;;;;;;;15.50;11.13;;;;;;;22.13;69.55;94154.31;5062540;28;20031;-77
2023/07/18 03:28:08;;;;;;;28.15;12.40;;;;;;;22.11;69.85;94157.41;5063366;28;20067;-76
2023/07/18 03:30:33;;;;;;;19.80;11.95;;;;;;;22.10;70.25;94161.28;5063223;28;20024;-77
2023/07/18 03:32:59;;;;;;;21.88;11.77;;;;;;;22.14;70.48;94162.06;5063357;28;20091;-77
2023/07/18 03:35:24;;;;;;;24.13;11.55;;;;;;;22.10;70.71;94171.34;5063466;28;20021;-77
2023/07/18 03:37:50;;;;;;;23.08;11.82;;;;;;;22.13;70.95;94173.31;5063543;28;20392;-77
2023/07/18 03:40:15;;;;;;;21.90;13.32;;;;;;;22.14;71.13;94169.44;5063450;28;20039;-76
2023/07/18 03:42:42;;;;;;;31.85;11.80;;;;;;;22.13;70.16;94173.31;5063061;28;20055;-77
2023/07/18 03:45:10;;;;;;;19.35;10.48;;;;;;;22.15;70.54;94174.50;5063212;28;20024;-77
2023/07/18 03:47:36;;;;;;;21.52;10.95;;;;;;;22.17;70.83;94174.91;5063280;28;20064;-78
2023/07/18 03:50:02;;;;;;;23.83;12.25;;;;;;;22.14;71.07;94175.63;5063223;28;20371;-78
2023/07/18 03:52:28;;;;;;;23.42;11.95;;;;;;;22.14;70.81;94186.50;5062904;28;20215;-78
2023/07/18 03:54:53;;;;;;;39.20;12.35;;;;;;;22.17;70.64;94196.63;5062867;28;20108;-78
2023/07/18 03:57:19;;;;;;;26.30;13.43;;;;;;;22.12;70.94;94201.63;5063209;28;20056;-77
2023/07/18 03:59:44;;;;;;;16.48;11.88;;;;;;;22.13;71.11;94206.66;5063013;28;20071;-77
2023/07/18 04:02:10;;;;;;;15.18;12.35;;;;;;;22.21;70.68;94208.28;5062962;28;20052;-77
2023/07/18 04:04:35;;;;;;;18.40;12.55;;;;;;;22.21;70.81;94215.66;5062880;28;20326;-78
2023/07/18 04:07:02;;;;;;;17.83;12.23;;;;;;;22.24;70.87;94215.69;5062844;28;20326;-78
2023/07/18 04:09:28;;;;;;;16.55;11.18;;;;;;;22.30;71.11;94218.03;5062926;28;20025;-77
2023/07/18 04:11:53;;;;;;;19.92;14.55;;;;;;;22.32;70.76;94213.00;5061759;28;20044;-77
2023/07/18 04:14:19;;;;;;;20.05;12.57;;;;;;;22.36;71.36;94208.38;5062970;28;20086;-77
2023/07/18 04:16:44;;;;;;;18.13;13.40;;;;;;;22.40;71.40;94215.38;5062758;28;20271;-77
2023/07/18 04:19:10;;;;;;;22.75;13.88;;;;;;;22.42;71.36;94207.63;5062654;28;20323;-78
2023/07/18 04:21:35;;;;;;;22.30;14.75;;;;;;;22.55;70.95;94210.81;5062354;28;20040;-78
2023/07/18 04:24:04;;;;;;;21.17;15.10;;;;;;;22.64;70.51;94211.25;5062939;28;20082;-77
2023/07/18 04:26:29;;;;;;;20.70;14.25;;;;;;;22.77;70.90;94205.47;5062777;28;20039;-79
2023/07/18 04:28:54;;;;;;;20.83;14.38;;;;;;;22.81;70.08;94198.09;5062665;28;20033;-79
2023/07/18 04:31:20;;;;;;;25.20;14.77;;;;;;;22.86;69.87;94195.03;5062482;28;20096;-78
2023/07/18 04:33:47;;;;;;;18.85;14.35;;;;;;;22.91;69.86;94194.66;5062846;28;20047;-78
2023/07/18 04:36:12;;;;;;;21.13;14.73;;;;;;;22.97;69.49;94198.56;5062575;28;20027;-78
2023/07/18 04:38:38;;;;;;;24.02;15.13;;;;;;;23.05;69.11;94196.66;5062474;28;20021;-78
2023/07/18 04:41:03;;;;;;;18.63;13.95;;;;;;;23.07;68.86;94205.22;5062487;28;20032;-78
2023/07/18 04:43:31;;;;;;;27.63;15.30;;;;;;;23.14;68.31;94190.84;5062221;28;20362;-78
2023/07/18 04:45:57;;;;;;;29.42;14.90;;;;;;;23.18;69.08;94197.88;5062510;28;20025;-77
2023/07/18 04:48:22;;;;;;;28.48;15.68;;;;;;;23.14;69.35;94186.22;5062521;28;20193;-77
2023/07/18 04:50:55;;;;;;;26.85;14.93;;;;;;;23.20;69.46;94194.75;5061305;28;20323;-77
2023/07/18 04:53:21;;;;;;;26.55;15.65;;;;;;;23.27;69.37;94189.34;5061964;28;20032;-77
2023/07/18 04:55:50;;;;;;;29.77;15.30;;;;;;;23.32;69.37;94185.44;5062481;28;20025;-77
2023/07/18 04:58:18;;;;;;;19.77;13.93;;;;;;;23.38;69.26;94184.69;5062815;28;20028;-77
2023/07/18 05:00:44;;;;;;;25.63;14.60;;;;;;;23.45;69.56;94173.06;5062343;28;20096;-78
2023/07/18 05:03:10;;;;;;;37.40;14.63;;;;;;;23.52;69.54;94169.53;5062362;28;20091;-80
2023/07/18 05:05:35;;;;;;;23.70;14.02;;;;;;;23.64;68.80;94177.31;5066282;28;20059;-83
2023/07/18 05:08:03;;;;;;;22.92;14.82;;;;;;;23.74;67.64;94182.00;5066621;28;20318;-80
2023/07/18 05:10:28;;;;;;;29.77;15.05;;;;;;;23.80;67.05;94175.00;5066359;28;20048;-81
2023/07/18 05:12:55;;;;;;;26.15;14.63;;;;;;;23.82;66.64;94174.63;5066440;28;20017;-81
2023/07/18 05:15:21;;;;;;;25.40;14.48;;;;;;;23.90;66.39;94186.28;5066225;28;20025;-80
2023/07/18 05:17:47;;;;;;;24.90;14.80;;;;;;;23.90;66.21;94184.34;5066223;28;20028;-81
2023/07/18 05:20:13;;;;;;;22.00;14.32;;;;;;;23.94;65.76;94187.06;5066136;28;20033;-80
2023/07/18 05:22:43;;;;;;;30.73;14.32;;;;;;;24.00;65.79;94182.78;5065971;28;20227;-83
2023/07/18 05:25:11;;;;;;;25.65;15.10;;;;;;;24.09;66.26;94180.41;5066025;28;20039;-81
2023/07/18 05:27:38;;;;;;;30.15;14.95;;;;;;;24.14;65.70;94190.94;5066056;28;20263;-81
2023/07/18 05:30:07;;;;;;;28.25;14.93;;;;;;;24.10;65.68;94189.38;5064739;28;20230;-81
2023/07/18 05:32:32;;;;;;;33.67;14.50;;;;;;;24.19;65.60;94179.63;5064704;28;20020;-81
2023/07/18 05:35:01;;;;;;;24.48;15.30;;;;;;;24.24;65.43;94178.44;5065932;28;20021;-81
2023/07/18 05:37:28;;;;;;;30.42;14.70;;;;;;;24.29;65.50;94174.56;5065805;28;20079;-82
2023/07/18 05:39:54;;;;;;;26.02;14.55;;;;;;;24.38;65.92;94191.25;5065816;28;20048;-79
2023/07/18 05:42:19;;;;;;;49.03;16.50;;;;;;;24.43;65.99;94188.91;5065329;28;20075;-80
2023/07/18 05:44:45;;;;;;;29.60;15.07;;;;;;;24.55;64.91;94192.44;5065630;28;20025;-80
2023/07/18 05:47:10;;;;;;;34.10;15.30;;;;;;;24.57;64.17;94196.31;5065707;28;20096;-80
2023/07/18 05:49:36;;;;;;;36.10;17.98;;;;;;;24.63;64.02;94200.16;5065513;28;20373;-80
2023/07/18 05:52:01;;;;;;;27.60;14.60;;;;;;;24.67;63.87;94196.66;5065244;28;20067;-81
2023/07/18 05:54:28;;;;;;;31.08;15.88;;;;;;;24.70;63.60;94198.59;5065294;28;20357;-81
2023/07/18 05:56:54;;;;;;;18.80;15.32;;;;;;;24.69;63.36;94188.84;5065300;28;20035;-81
2023/07/18 05:59:20;;;;;;;28.13;16.08;;;;;;;24.71;62.90;94197.41;5065456;28;20025;-81
2023/07/18 06:01:45;;;;;;;23.25;15.55;;;;;;;24.83;62.49;94195.03;5065603;28;20056;-78
2023/07/18 06:04:11;;;;;;;21.00;15.95;;;;;;;24.91;62.65;94193.03;5065108;28;20052;-79
2023/07/18 06:06:37;;;;;;;24.15;15.73;;;;;;;25.00;62.07;94196.13;5065189;28;20025;-80
2023/07/18 06:09:10;;;;;;;24.67;16.23;;;;;;;25.05;62.19;94191.44;5065069;28;20025;-79
2023/07/18 06:11:37;;;;;;;30.73;16.95;;;;;;;25.09;61.90;94190.22;5065049;28;20063;-81
2023/07/18 06:14:05;;;;;;;37.80;17.33;;;;;;;25.14;62.20;94189.81;5064156;28;20031;-87
2023/07/18 06:16:31;;;;;;;31.83;15.70;;;;;;;25.27;61.57;94181.97;5063730;28;20052;-76
2023/07/18 06:18:56;;;;;;;25.65;16.35;;;;;;;25.27;61.48;94187.44;5064521;28;20021;-76
2023/07/18 06:21:26;;;;;;;25.23;16.10;;;;;;;25.35;61.17;94191.66;5064580;28;20027;-74
2023/07/18 06:23:54;;;;;;;27.85;15.02;;;;;;;25.49;60.82;94195.50;5064559;28;20020;-75
2023/07/18 06:26:20;;;;;;;32.95;15.70;;;;;;;25.49;60.52;94190.81;5064691;28;20028;-75
2023/07/18 06:28:45;;;;;;;28.80;15.10;;;;;;;25.56;59.91;94188.00;5064755;28;20246;-76
2023/07/18 06:31:11;;;;;;;21.20;15.30;;;;;;;25.61;59.82;94189.56;5064598;28;20020;-74
2023/07/18 06:33:37;;;;;;;22.85;14.75;;;;;;;25.59;60.21;94189.94;5064313;28;20043;-75
2023/07/18 06:36:03;;;;;;;20.98;15.25;;;;;;;25.57;61.22;94194.25;5064492;28;20215;-76
2023/07/18 06:38:28;;;;;;;28.38;15.38;;;;;;;25.60;60.66;94188.00;5064513;28;20027;-75
2023/07/18 06:40:55;;;;;;;25.20;14.73;;;;;;;25.59;60.92;94191.91;5063133;28;20032;-76
2023/07/18 06:43:21;;;;;;;22.58;15.48;;;;;;;25.67;60.38;94181.72;5064345;28;20041;-75
2023/07/18 06:45:47;;;;;;;29.13;15.13;;;;;;;25.67;60.79;94193.41;5064216;28;20020;-75
2023/07/18 06:48:13;;;;;;;25.27;15.80;;;;;;;25.81;60.31;94195.25;5064100;28;20021;-75
2023/07/18 06:50:52;;;;;;;25.90;13.85;;;;;;;25.92;59.38;94198.69;5064162;28;20020;-75
2023/07/18 06:53:21;;;;;;;29.15;13.48;;;;;;;26.00;59.52;94202.91;5064190;28;20017;-76
2023/07/18 06:55:48;;;;;;;24.80;14.65;;;;;;;26.14;58.64;94198.50;5064074;28;20029;-74
2023/07/18 06:58:14;;;;;;;24.50;13.60;;;;;;;26.14;58.39;94198.50;5064103;28;20073;-75
2023/07/18 07:00:40;;;;;;;38.30;15.05;;;;;;;26.25;58.51;94199.16;5064012;28;20021;-75
2023/07/18 07:03:06;;;;;;;26.45;16.80;;;;;;;26.36;58.25;94199.84;5063724;28;20387;-73
2023/07/18 07:05:39;;;;;;;25.30;13.55;;;;;;;26.45;59.40;94196.63;5063991;28;20028;-73
2023/07/18 07:08:08;;;;;;;36.92;16.27;;;;;;;26.57;58.99;94209.78;5062682;28;20020;-73
2023/07/18 07:10:38;;;;;;;24.98;14.15;;;;;;;26.63;58.91;94201.94;5063851;28;20016;-73
2023/07/18 07:13:04;;;;;;;25.98;15.45;;;;;;;26.64;59.17;94198.00;5063478;28;20092;-72
2023/07/18 07:15:30;;;;;;;25.00;15.27;;;;;;;26.71;59.26;94203.41;5062618;28;20016;-73
2023/07/18 07:17:56;;;;;;;31.48;14.93;;;;;;;26.79;59.32;94195.91;5063696;28;20024;-71
2023/07/18 07:20:24;;;;;;;25.17;15.00;;;;;;;26.94;59.89;94193.75;5063464;28;20029;-73
2023/07/18 07:22:51;;;;;;;35.05;16.35;;;;;;;27.11;60.55;94202.91;5063771;28;20091;-73
2023/07/18 07:25:16;;;;;;;22.75;15.85;;;;;;;27.28;59.17;94201.94;5063572;28;20048;-73
2023/07/18 07:27:44;;;;;;;23.38;14.95;;;;;;;27.31;59.08;94200.31;5062977;28;20021;-73
2023/07/18 07:30:15;;;;;;;24.10;14.20;;;;;;;27.41;59.17;94204.88;5063389;28;20224;-73
2023/07/18 07:32:41;;;;;;;19.73;14.43;;;;;;;27.49;58.54;94195.38;5063493;28;20032;-74
2023/07/18 07:35:08;;;;;;;26.35;13.15;;;;;;;27.66;58.29;94192.78;5063200;28;20283;-73
2023/07/18 07:37:33;;;;;;;23.92;14.75;;;;;;;27.77;57.32;94188.69;5063471;28;20048;-72
2023/07/18 07:39:59;;;;;;;29.23;14.00;;;;;;;27.83;56.63;94197.22;5063335;28;20029;-73
2023/07/18 07:42:24;;;;;;;18.42;12.60;;;;;;;27.91;56.36;94195.16;5063092;28;20162;-72
2023/07/18 07:44:50;;;;;;;25.70;12.85;;;;;;;28.07;56.24;94198.03;5063411;28;20327;-71
2023/07/18 07:47:15;;;;;;;25.50;13.65;;;;;;;28.12;55.49;94203.00;5063232;28;20044;-71
2023/07/18 07:49:41;;;;;;;19.98;13.57;;;;;;;28.07;55.81;94211.72;5061792;28;20031;-72
2023/07/18 07:52:06;;;;;;;28.17;13.77;;;;;;;28.16;55.96;94198.25;5063045;28;20024;-72
2023/07/18 07:54:32;;;;;;;18.77;12.77;;;;;;;28.28;55.17;94201.59;5062663;28;20051;-73
2023/07/18 07:56:57;;;;;;;25.35;12.98;;;;;;;28.28;53.98;94194.13;5062998;28;20029;-71
2023/07/18 07:59:23;;;;;;;19.40;12.95;;;;;;;28.33;54.43;94201.09;5062944;28;20051;-72
2023/07/18 08:01:48;;;;;;;35.83;13.50;;;;;;;28.50;54.30;94200.03;5062899;28;20036;-72
2023/07/18 08:04:13;;;;;;;18.10;12.57;;;;;;;28.60;54.00;94199.06;5062906;28;20371;-72
2023/07/18 08:06:39;;;;;;;19.48;13.23;;;;;;;28.71;52.99;94201.59;5062866;28;20096;-73
2023/07/18 08:09:05;;;;;;;24.75;13.85;;;;;;;28.72;54.00;94202.34;5062771;28;20031;-73
2023/07/18 08:11:31;;;;;;;20.95;13.20;;;;;;;28.78;53.45;94197.91;5062867;28;20330;-71
2023/07/18 08:13:56;;;;;;;20.58;12.98;;;;;;;28.86;52.97;94204.81;5062762;28;20024;-71
2023/07/18 08:16:21;;;;;;;21.95;12.27;;;;;;;28.91;51.22;94200.81;5062725;28;20025;-73
2023/07/18 08:18:47;;;;;;;17.92;12.52;;;;;;;28.99;52.94;94197.50;5061421;28;20029;-73
2023/07/18 08:21:13;;;;;;;23.38;12.02;;;;;;;29.11;50.89;94200.84;5062648;28;20108;-72
2023/07/18 08:23:38;;;;;;;23.90;13.32;;;;;;;29.01;52.15;94192.38;5062790;28;20028;-74
2023/07/18 08:26:04;;;;;;;15.10;11.50;;;;;;;28.98;52.64;94195.97;5062707;28;20110;-73
2023/07/18 08:28:29;;;;;;;19.67;12.65;;;;;;;28.94;52.59;94191.72;5061176;28;20354;-75
2023/07/18 08:30:55;;;;;;;27.90;12.52;;;;;;;28.97;50.98;94188.91;5063983;28;20050;-93
2023/07/18 08:33:21;;;;;;;15.70;11.68;;;;;;;29.01;51.12;94194.34;5063897;28;20021;-88
2023/07/18 08:35:49;;;;;;;14.27;11.95;;;;;;;29.09;51.00;94194.97;5062786;28;20276;-90
2023/07/18 08:38:17;;;;;;;19.50;11.65;;;;;;;29.12;50.90;94199.63;5062264;28;20029;-88
2023/07/18 08:40:43;;;;;;;16.77;11.73;;;;;;;29.19;51.82;94191.25;5067957;28;20025;-92
2023/07/18 08:43:14;;;;;;;25.23;13.77;;;;;;;29.24;51.72;94195.47;5067643;28;20090;-89
2023/07/18 08:45:41;;;;;;;17.83;13.73;;;;;;;29.34;50.05;94195.22;5067287;28;20033;-87
2023/07/18 08:48:08;;;;;;;14.15;11.73;;;;;;;29.35;48.34;94196.78;5068174;28;20215;-89
2023/07/18 08:50:35;;;;;;;26.83;12.55;;;;;;;29.40;50.01;94199.00;5067846;28;20021;-90
2023/07/18 08:53:04;;;;;;;19.23;12.13;;;;;;;29.47;48.49;94198.06;5065903;28;20090;-83
2023/07/18 08:55:30;;;;;;;22.17;16.05;;;;;;;29.46;48.10;94193.03;5066676;28;20048;-89
2023/07/18 08:57:56;;;;;;;16.70;12.70;;;;;;;29.53;47.85;94195.59;5067135;28;20048;-81
2023/07/18 09:00:22;;;;;;;22.48;12.73;;;;;;;29.64;47.74;94190.63;5067905;28;20033;-90
2023/07/18 09:02:48;;;;;;;16.65;11.43;;;;;;;29.71;47.74;94178.72;5067363;28;20024;-85
2023/07/18 09:05:37;;;;;;;18.35;12.45;;;;;;;29.78;47.56;94189.56;5066985;28;20096;-84
2023/07/18 09:08:05;;;;;;;15.05;13.07;;;;;;;29.77;47.31;94188.78;5065345;28;20028;-83
2023/07/18 09:10:31;;;;;;;18.08;13.65;;;;;;;29.84;47.20;94181.56;5066311;28;20040;-83
2023/07/18 09:13:03;;;;;;;28.35;13.48;;;;;;;29.99;49.13;94188.25;5066681;28;20036;-88
2023/07/18 09:15:30;;;;;;;20.38;13.15;;;;;;;30.03;49.04;94183.47;5067269;28;20028;-86
2023/07/18 09:17:59;;;;;;;20.38;12.75;;;;;;;30.08;48.93;94180.16;5066958;28;20228;-86
2023/07/18 09:20:26;;;;;;;24.05;13.43;;;;;;;30.04;47.01;94179.50;5067347;28;20223;-90
2023/07/18 09:22:59;;;;;;;17.73;12.32;;;;;;;30.05;47.34;94181.03;5066398;28;20020;-84
2023/07/18 09:25:26;;;;;;;19.00;13.05;;;;;;;30.09;47.18;94176.22;5066132;28;20082;-85
2023/07/18 09:27:53;;;;;;;19.75;12.07;;;;;;;30.13;48.70;94182.41;5064761;28;20027;-85
2023/07/18 09:30:23;;;;;;;20.85;12.73;;;;;;;30.10;48.01;94186.00;5065842;28;20029;-87
2023/07/18 09:32:53;;;;;;;22.13;12.73;;;;;;;30.12;49.34;94174.59;5065309;28;20013;-85
2023/07/18 09:35:18;;;;;;;18.83;12.38;;;;;;;30.12;49.83;94180.84;5067827;28;20021;-89
2023/07/18 09:37:48;;;;;;;20.13;13.30;;;;;;;30.01;48.26;94174.88;5067644;28;20089;-86
2023/07/18 09:40:16;;;;;;;21.10;14.10;;;;;;;29.98;48.94;94175.72;5066713;28;20020;-86
2023/07/18 09:42:44;;;;;;;23.58;13.27;;;;;;;30.06;48.07;94181.81;5066093;28;20029;-85
2023/07/18 09:45:11;;;;;;;20.90;14.35;;;;;;;30.14;46.87;94185.94;5067603;28;20031;-92
2023/07/18 09:47:38;;;;;;;19.17;12.82;;;;;;;30.18;45.61;94173.63;5067188;28;20021;-92
2023/07/18 09:50:04;;;;;;;17.92;12.70;;;;;;;30.26;45.77;94173.47;5065819;28;20024;-88
2023/07/18 09:52:34;;;;;;;23.27;13.18;;;;;;;30.25;46.52;94188.41;5065788;28;20028;-85
2023/07/18 09:55:04;;;;;;;15.30;12.35;;;;;;;30.09;47.89;94165.25;5074264;28;20037;-92
2023/07/18 09:57:30;;;;;;;21.27;12.82;;;;;;;30.07;46.20;94164.91;5070351;28;20025;-91
2023/07/18 09:59:58;;;;;;;14.95;12.35;;;;;;;30.18;48.35;94165.38;5066582;28;20027;-86
2023/07/18 10:02:36;;;;;;;19.02;12.85;;;;;;;30.20;49.33;94164.97;5068667;28;20032;-91
2023/07/18 10:05:04;;;;;;;16.40;11.93;;;;;;;30.18;45.05;94168.13;5068634;28;20024;-85
2023/07/18 10:07:34;;;;;;;25.75;10.32;;;;;;;30.20;45.05;94159.47;5068073;28;20021;-90
2023/07/18 10:10:08;;;;;;;13.60;10.48;;;;;;;30.37;44.24;94160.25;5065991;28;20021;-91
2023/07/18 10:13:00;;;;;;;15.73;10.02;;;;;;;30.48;44.82;94157.19;5065780;28;20028;-87
2023/07/18 10:15:29;;;;;;;15.88;9.32;;;;;;;30.58;42.64;94159.66;5060034;28;20051;-90
2023/07/18 10:18:17;;;;;;;16.95;8.93;;;;;;;30.62;40.27;94150.53;5068230;28;20028;-87
2023/07/18 10:20:59;;;;;;;18.30;10.43;;;;;;;30.77;42.02;94151.66;5067687;28;20031;-90
2023/07/18 10:23:42;;;;;;;17.63;9.80;;;;;;;30.91;43.87;94150.53;5067876;28;20025;-90
2023/07/18 10:26:08;;;;;;;17.35;9.55;;;;;;;30.84;41.67;94156.97;5065519;28;20035;-88
2023/07/18 10:28:47;;;;;;;17.77;9.48;;;;;;;30.99;42.17;94144.38;5065905;28;20041;-88
2023/07/18 10:31:35;;;;;;;15.65;8.75;;;;;;;31.13;42.87;94156.19;5065369;28;20025;-88
2023/07/18 10:34:09;;;;;;;13.55;9.15;;;;;;;31.07;42.61;94152.44;5066717;28;20025;-85
2023/07/18 10:36:35;;;;;;;13.55;9.27;;;;;;;31.08;42.44;94151.19;5065212;28;20071;-85
2023/07/18 10:39:14;;;;;;;23.80;10.55;;;;;;;31.17;43.14;94151.34;5064222;28;20032;-85
2023/07/18 10:41:44;;;;;;;14.60;9.27;;;;;;;31.13;40.47;94145.16;5064885;28;20382;-85
2023/07/18 10:44:11;;;;;;;19.65;8.15;;;;;;;31.11;40.74;94158.59;5064774;28;20074;-82
2023/07/18 10:46:38;;;;;;;17.23;7.35;;;;;;;30.99;39.21;94151.84;5065133;28;20309;-83
2023/07/18 10:49:04;;;;;;;11.18;6.90;;;;;;;31.10;39.23;94151.53;5064875;28;20033;-83
2023/07/18 10:51:30;;;;;;;19.40;7.00;;;;;;;31.13;39.35;94145.16;5064898;28;20044;-83
2023/07/18 10:53:58;;;;;;;15.93;7.65;;;;;;;31.15;38.82;94135.25;5064284;28;20037;-83
2023/07/18 10:56:23;;;;;;;9.85;5.78;;;;;;;31.12;37.19;94149.91;5064410;28;20075;-82
2023/07/18 10:58:51;;;;;;;12.05;5.10;;;;;;;31.00;37.21;94153.41;5064442;28;20017;-86
2023/07/18 11:01:17;;;;;;;9.43;5.22;;;;;;;31.10;37.29;94146.81;5063609;28;20074;-85
2023/07/18 11:03:45;;;;;;;9.90;5.82;;;;;;;31.12;36.67;94149.91;5062902;28;20211;-86
2023/07/18 11:06:13;;;;;;;10.95;5.07;;;;;;;31.20;35.85;94161.44;5064382;28;20096;-84
2023/07/18 11:08:38;;;;;;;11.35;4.53;;;;;;;31.23;34.63;94154.31;5064262;28;20024;-83
2023/07/18 11:11:04;;;;;;;9.15;4.28;;;;;;;31.21;33.70;94152.00;5063301;28;20051;-82
2023/07/18 11:13:38;;;;;;;7.05;3.85;;;;;;;31.35;33.70;94142.53;5064313;28;20032;-81
2023/07/18 11:16:06;;;;;;;15.18;5.32;;;;;;;31.59;34.18;94154.03;5063902;28;20100;-82
2023/07/18 11:18:35;;;;;;;20.75;4.43;;;;;;;31.74;32.83;94160.59;5064339;28;20095;-83